createdAt,value
2024-05-09T00:00:40.342Z,99484.88
2024-05-09T00:03:08.562Z,99492.88
2024-05-09T00:05:36.563Z,99495.28
2024-05-09T00:08:03.507Z,99491.59
2024-05-09T00:10:36.052Z,99488.13
2024-05-09T00:13:05.244Z,99485.69
2024-05-09T00:15:33.199Z,99486.75
2024-05-09T00:17:59.921Z,99492.06
2024-05-09T00:20:35.079Z,99486.13
2024-05-09T00:23:06.801Z,99489.63
2024-05-09T00:25:33.611Z,99489.63
2024-05-09T00:28:00.104Z,99485.09
2024-05-09T00:30:33.537Z,99480.00
2024-05-09T00:33:02.863Z,99481.06
2024-05-09T00:35:29.775Z,99481.88
2024-05-09T00:37:56.462Z,99486.38
2024-05-09T00:40:31.029Z,99472.25
2024-05-09T00:43:05.322Z,99480.25
2024-05-09T00:45:31.832Z,99480.47
2024-05-09T00:47:59.104Z,99478.84
2024-05-09T00:50:33.794Z,99477.78
2024-05-09T00:53:03.216Z,99477.00
2024-05-09T00:55:29.809Z,99469.00
2024-05-09T00:57:56.311Z,99474.31
2024-05-09T01:00:31.395Z,99475.38
2024-05-09T01:03:04.777Z,99471.66
2024-05-09T01:05:32.412Z,99477.00
2024-05-09T01:07:59.081Z,99478.03
2024-05-09T01:10:33.439Z,99477.22
2024-05-09T01:13:01.694Z,99480.69
2024-05-09T01:15:28.200Z,99478.28
2024-05-09T01:17:56.300Z,99472.94
2024-05-09T01:20:31.735Z,99477.47
2024-05-09T01:23:06.587Z,99480.13
2024-05-09T01:25:33.136Z,99470.50
2024-05-09T01:27:59.631Z,99476.63
2024-05-09T01:32:54.379Z,99474.22
2024-05-09T01:35:23.506Z,99473.41
2024-05-09T01:37:50.281Z,99467.25
2024-05-09T01:40:22.011Z,99472.59
2024-05-09T01:42:51.403Z,99473.41
2024-05-09T01:45:18.546Z,99477.91
2024-05-09T01:47:45.170Z,99472.84
2024-05-09T01:50:16.318Z,99480.81
2024-05-09T01:52:43.120Z,99474.66
2024-05-09T01:55:09.655Z,99472.00
2024-05-09T01:57:36.218Z,99473.84
2024-05-09T02:00:03.845Z,99474.91
2024-05-09T02:02:30.464Z,99480.81
2024-05-09T02:04:57.087Z,99483.25
2024-05-09T02:07:23.746Z,99476.88
2024-05-09T02:09:53.754Z,99483.59
2024-05-09T02:12:20.330Z,99480.34
2024-05-09T02:14:46.897Z,99482.56
2024-05-09T02:17:13.452Z,99473.75
2024-05-09T02:19:40.003Z,99477.00
2024-05-09T02:22:06.479Z,99479.88
2024-05-09T02:24:32.962Z,99477.22
2024-05-09T02:26:59.450Z,99475.63
2024-05-09T02:29:26.062Z,99473.75
2024-05-09T02:31:52.948Z,99463.56
2024-05-09T02:34:19.636Z,99475.81
2024-05-09T02:36:46.157Z,99469.94
2024-05-09T02:39:12.660Z,99466.22
2024-05-09T02:41:39.205Z,99468.88
2024-05-09T02:44:05.761Z,99467.63
2024-05-09T02:46:32.304Z,99466.81
2024-05-09T02:48:58.821Z,99461.25
2024-05-09T02:51:25.348Z,99462.19
2024-05-09T02:53:51.825Z,99460.81
2024-05-09T02:56:18.352Z,99459.50
2024-05-09T02:58:44.884Z,99459.75
2024-05-09T03:01:11.469Z,99462.41
2024-05-09T03:03:38.410Z,99471.22
2024-05-09T03:06:05.131Z,99465.06
2024-05-09T03:08:31.735Z,99469.59
2024-05-09T03:10:58.328Z,99469.59
2024-05-09T03:13:24.904Z,99468.19
2024-05-09T03:15:51.394Z,99473.75
2024-05-09T03:18:17.981Z,99464.72
2024-05-09T03:20:44.925Z,99466.81
2024-05-09T03:23:11.613Z,99466.22
2024-05-09T03:25:38.558Z,99453.59
2024-05-09T03:28:05.377Z,99464.84
2024-05-09T03:30:39.881Z,99462.38
2024-05-09T03:33:17.670Z,99468.19
2024-05-09T03:35:45.683Z,99471.06
2024-05-09T03:38:12.415Z,99471.88
2024-05-09T03:40:45.731Z,99469.22
2024-05-09T03:43:12.994Z,99471.06
2024-05-09T03:45:39.711Z,99467.59
2024-05-09T03:48:06.663Z,99459.59
2024-05-09T03:50:35.754Z,99464.13
2024-05-09T03:53:03.258Z,99460.41
2024-05-09T03:55:29.852Z,99460.41
2024-05-09T03:57:56.367Z,99463.31
2024-05-09T04:00:31.260Z,99466.53
2024-05-09T04:03:04.452Z,99465.97
2024-05-09T04:05:32.655Z,99460.66
2024-05-09T04:07:59.307Z,99457.19
2024-05-09T04:10:32.817Z,99463.09
2024-05-09T04:13:01.132Z,99462.06
2024-05-09T04:15:27.987Z,99466.34
2024-05-09T04:17:54.650Z,99478.97
2024-05-09T04:20:32.517Z,99471.53
2024-05-09T04:23:04.714Z,99472.34
2024-05-09T04:25:34.230Z,99471.31
2024-05-09T04:28:00.999Z,99478.28
2024-05-09T04:30:36.395Z,99471.91
2024-05-09T04:33:07.100Z,99477.78
2024-05-09T04:35:35.042Z,99476.53
2024-05-09T04:38:01.654Z,99469.34
2024-05-09T04:40:33.383Z,99474.44
2024-05-09T04:43:02.748Z,99474.09
2024-05-09T04:45:29.508Z,99473.16
2024-05-09T04:47:56.180Z,99472.03
2024-05-09T04:50:30.203Z,99475.94
2024-05-09T04:53:02.995Z,99475.25
2024-05-09T04:55:29.594Z,99463.78
2024-05-09T04:57:56.077Z,99462.97
2024-05-09T05:00:32.189Z,99464.59
2024-05-09T05:03:05.704Z,99473.19
2024-05-09T05:05:32.576Z,99470.63
2024-05-09T05:07:59.127Z,99478.03
2024-05-09T05:10:33.256Z,99475.16
2024-05-09T05:13:22.281Z,99472.84
2024-05-09T05:15:50.258Z,99470.28
2024-05-09T05:18:16.974Z,99476.91
2024-05-09T05:20:43.726Z,99475.06
2024-05-09T05:23:11.414Z,99471.09
2024-05-09T05:25:37.943Z,99479.69
2024-05-09T05:28:04.700Z,99475.50
2024-05-09T05:30:34.626Z,99473.16
2024-05-09T05:33:01.953Z,99465.75
2024-05-09T05:35:28.832Z,99469.56
2024-05-09T05:37:55.447Z,99466.91
2024-05-09T05:40:28.623Z,99480.56
2024-05-09T05:43:02.629Z,99486.69
2024-05-09T05:45:29.165Z,99479.84
2024-05-09T05:47:55.965Z,99486.00
2024-05-09T05:50:28.013Z,99476.72
2024-05-09T05:53:01.804Z,99487.16
2024-05-09T05:55:28.387Z,99486.94
2024-05-09T05:57:54.870Z,99489.09
2024-05-09T06:00:29.131Z,99496.78
2024-05-09T06:03:02.197Z,99502.13
2024-05-09T06:05:29.020Z,99495.94
2024-05-09T06:07:55.744Z,99492.09
2024-05-09T06:10:26.300Z,99493.00
2024-05-09T06:13:01.262Z,99491.34
2024-05-09T06:15:27.766Z,99487.84
2024-05-09T06:17:54.546Z,99499.66
2024-05-09T06:20:31.230Z,99498.66
2024-05-09T06:23:03.044Z,99499.09
2024-05-09T06:25:29.678Z,99494.25
2024-05-09T06:27:56.169Z,99498.66
2024-05-09T06:30:30.067Z,99501.06
2024-05-09T06:33:04.492Z,99502.25
2024-05-09T06:35:31.501Z,99500.22
2024-05-09T06:37:58.214Z,99496.66
2024-05-09T06:40:29.437Z,99504.97
2024-05-09T06:43:01.925Z,99501.41
2024-05-09T06:45:28.377Z,99495.50
2024-05-09T06:47:54.963Z,99496.91
2024-05-09T06:50:24.324Z,99493.16
2024-05-09T06:52:54.404Z,99501.75
2024-05-09T06:55:20.872Z,99503.50
2024-05-09T06:57:47.319Z,99505.00
2024-05-09T07:00:22.667Z,99499.91
2024-05-09T07:02:56.877Z,99503.81
2024-05-09T07:05:23.860Z,99501.63
2024-05-09T07:07:50.473Z,99500.75
2024-05-09T07:10:22.160Z,99507.16
2024-05-09T07:12:55.477Z,99510.50
2024-05-09T07:15:21.975Z,99504.91
2024-05-09T07:17:48.670Z,99503.53
2024-05-09T07:20:22.957Z,99507.81
2024-05-09T07:22:54.378Z,99502.69
2024-05-09T07:25:20.885Z,99511.63
2024-05-09T07:27:47.407Z,99509.78
2024-05-09T07:30:20.344Z,99509.97
2024-05-09T07:32:53.655Z,99512.78
2024-05-09T07:35:20.367Z,99511.47
2024-05-09T07:37:47.093Z,99513.09
2024-05-09T07:40:24.080Z,99511.13
2024-05-09T07:42:55.362Z,99515.56
2024-05-09T07:45:40.595Z,99518.00
2024-05-09T07:53:36.488Z,99512.19
2024-05-09T07:55:55.714Z,99499.91
2024-05-09T07:58:27.104Z,99498.94
2024-05-09T08:00:54.168Z,99501.75
2024-05-09T08:03:20.759Z,99506.19
2024-05-09T08:05:47.365Z,99491.81
2024-05-09T08:08:13.981Z,99495.75
2024-05-09T08:10:40.516Z,99498.16
2024-05-09T08:13:07.266Z,99498.63
2024-05-09T08:15:33.929Z,99488.00
2024-05-09T08:18:00.809Z,99492.53
2024-05-09T08:20:31.293Z,99492.28
2024-05-09T08:23:01.582Z,99493.78
2024-05-09T08:25:28.352Z,99491.94
2024-05-09T08:27:54.919Z,99496.09
2024-05-09T08:30:30.022Z,99495.66
2024-05-09T08:33:03.297Z,99493.03
2024-05-09T08:35:29.812Z,99489.28
2024-05-09T08:37:56.422Z,99488.94
2024-05-09T08:40:30.708Z,99491.22
2024-05-09T08:43:01.552Z,99492.50
2024-05-09T08:45:28.197Z,99494.69
2024-05-09T08:47:55.103Z,99495.75
2024-05-09T08:50:31.625Z,99492.06
2024-05-09T08:53:04.644Z,99498.34
2024-05-09T08:55:31.121Z,99490.78
2024-05-09T08:57:57.706Z,99485.56
2024-05-09T09:00:33.747Z,99486.84
2024-05-09T09:03:04.333Z,99484.53
2024-05-09T09:05:31.228Z,99494.16
2024-05-09T09:07:57.900Z,99494.88
2024-05-09T09:10:29.939Z,99490.81
2024-05-09T09:12:59.562Z,99489.94
2024-05-09T09:15:26.062Z,99483.66
2024-05-09T09:17:59.198Z,99487.75
2024-05-09T09:20:36.283Z,99485.41
2024-05-09T09:23:04.118Z,99485.97
2024-05-09T09:25:31.108Z,99486.13
2024-05-09T09:27:57.834Z,99481.69
2024-05-09T09:30:34.655Z,99481.91
2024-05-09T09:33:04.262Z,99490.50
2024-05-09T09:35:30.920Z,99487.94
2024-05-09T09:37:57.477Z,99495.34
2024-05-09T09:40:32.084Z,99491.16
2024-05-09T09:43:00.826Z,99483.97
2024-05-09T09:45:30.674Z,99485.03
2024-05-09T09:47:57.569Z,99477.81
2024-05-09T09:50:31.721Z,99482.94
2024-05-09T09:53:01.376Z,99478.06
2024-05-09T09:55:28.345Z,99474.34
2024-05-09T09:57:55.495Z,99477.19
2024-05-09T10:00:27.256Z,99470.59
2024-05-09T10:02:58.980Z,99475.97
2024-05-09T10:05:25.920Z,99474.53
2024-05-09T10:07:52.595Z,99472.09
2024-05-09T10:10:29.954Z,99470.84
2024-05-09T10:13:02.111Z,99471.41
2024-05-09T10:15:28.774Z,99470.94
2024-05-09T10:18:04.466Z,99461.13
2024-05-09T10:20:41.337Z,99463.66
2024-05-09T10:23:26.516Z,99461.22
2024-05-09T10:25:55.974Z,99460.31
2024-05-09T10:28:25.323Z,99460.91
2024-05-09T10:30:59.883Z,99450.69
2024-05-09T10:33:34.818Z,99451.47
2024-05-09T10:36:03.008Z,99455.03
2024-05-09T10:38:29.725Z,99449.63
2024-05-09T10:40:59.042Z,99445.28
2024-05-09T10:43:25.552Z,99446.94
2024-05-09T10:45:52.089Z,99442.78
2024-05-09T10:48:19.081Z,99441.03
2024-05-09T10:50:46.982Z,99434.53
2024-05-09T10:53:13.472Z,99435.41
2024-05-09T10:55:39.944Z,99431.69
2024-05-09T10:58:15.849Z,99431.38
2024-05-09T11:00:42.517Z,99434.03
2024-05-09T11:03:10.206Z,99428.41
2024-05-09T11:05:37.124Z,99421.28
2024-05-09T11:08:03.849Z,99430.25
2024-05-09T11:10:33.977Z,99430.41
2024-05-09T11:13:01.091Z,99421.72
2024-05-09T11:15:37.416Z,99425.28
2024-05-09T11:18:04.039Z,99423.59
2024-05-09T11:20:35.488Z,99414.84
2024-05-09T11:23:08.109Z,99409.06
2024-05-09T11:25:34.608Z,99412.13
2024-05-09T11:28:01.160Z,99412.47
2024-05-09T11:30:31.994Z,99407.34
2024-05-09T11:32:59.252Z,99403.88
2024-05-09T11:35:26.594Z,99408.88
2024-05-09T11:37:53.160Z,99404.69
2024-05-09T11:40:25.369Z,99396.28
2024-05-09T11:42:55.235Z,99401.00
2024-05-09T11:45:22.015Z,99398.53
2024-05-09T11:47:48.689Z,99396.50
2024-05-09T11:50:22.596Z,99403.84
2024-05-09T11:52:55.989Z,99392.69
2024-05-09T11:55:26.737Z,99385.81
2024-05-09T11:57:54.573Z,99383.25
2024-05-09T12:00:29.468Z,99373.72
2024-05-09T12:03:04.767Z,99381.50
2024-05-09T12:05:31.978Z,99378.25
2024-05-09T12:07:58.649Z,99376.28
2024-05-09T12:10:32.586Z,99372.72
2024-05-09T12:13:01.760Z,99374.91
2024-05-09T12:15:28.403Z,99372.06
2024-05-09T12:17:57.333Z,99363.13
2024-05-09T12:20:33.015Z,99373.69
2024-05-09T12:23:03.635Z,99370.47
2024-05-09T12:25:30.203Z,99365.53
2024-05-09T12:27:56.728Z,99371.97
2024-05-09T12:30:32.786Z,99360.13
2024-05-09T12:33:04.128Z,99363.38
2024-05-09T12:35:30.811Z,99361.50
2024-05-09T12:37:57.309Z,99357.34
2024-05-09T12:40:34.011Z,99359.22
2024-05-09T12:43:03.738Z,99357.00
2024-05-09T12:45:30.263Z,99360.00
2024-05-09T12:47:56.889Z,99353.63
2024-05-09T12:50:29.937Z,99352.81
2024-05-09T12:52:59.433Z,99350.97
2024-05-09T12:55:26.985Z,99345.41
2024-05-09T12:57:54.726Z,99342.16
2024-05-09T13:00:28.124Z,99340.88
2024-05-09T13:03:00.245Z,99335.75
2024-05-09T13:05:27.078Z,99339.72
2024-05-09T13:07:54.082Z,99326.72
2024-05-09T13:10:28.979Z,99330.13
2024-05-09T13:12:58.985Z,99324.53
2024-05-09T13:15:25.523Z,99318.47
2024-05-09T13:17:52.081Z,99325.09
2024-05-09T13:20:25.663Z,99312.34
2024-05-09T13:22:56.050Z,99318.72
2024-05-09T13:25:23.964Z,99317.91
2024-05-09T13:27:50.579Z,99316.22
2024-05-09T13:30:25.906Z,99305.16
2024-05-09T13:32:56.746Z,99310.47
2024-05-09T13:35:23.263Z,99306.59
2024-05-09T13:37:49.726Z,99304.25
2024-05-09T13:40:26.674Z,99300.44
2024-05-09T13:42:56.679Z,99306.59
2024-05-09T13:45:23.163Z,99306.00
2024-05-09T13:47:49.884Z,99303.34
2024-05-09T13:50:27.529Z,99294.78
2024-05-09T13:52:59.794Z,99297.69
2024-05-09T13:55:26.287Z,99292.38
2024-05-09T13:57:53.036Z,99288.91
2024-05-09T14:00:31.769Z,99290.75
2024-05-09T14:03:06.134Z,99281.44
2024-05-09T14:05:33.084Z,99288.09
2024-05-09T14:07:59.759Z,99288.91
2024-05-09T14:10:30.987Z,99279.50
2024-05-09T14:12:58.577Z,99276.03
2024-05-09T14:15:25.133Z,99275.16
2024-05-09T14:17:51.744Z,99275.69
2024-05-09T14:20:28.218Z,99271.44
2024-05-09T14:22:57.984Z,99274.34
2024-05-09T14:25:26.451Z,99267.63
2024-05-09T14:27:53.302Z,99267.63
2024-05-09T14:30:29.583Z,99271.34
2024-05-09T14:33:01.174Z,99268.41
2024-05-09T14:35:27.863Z,99271.91
2024-05-09T14:37:54.360Z,99266.81
2024-05-09T14:40:35.289Z,99262.53
2024-05-09T14:43:07.312Z,99258.25
2024-05-09T14:45:34.636Z,99265.44
2024-05-09T14:48:01.498Z,99260.34
2024-05-09T14:50:35.115Z,99253.16
2024-05-09T14:53:05.837Z,99251.00
2024-05-09T14:55:35.483Z,99251.19
2024-05-09T14:58:02.611Z,99242.41
2024-05-09T15:00:33.554Z,99235.88
2024-05-09T15:03:03.041Z,99231.16
2024-05-09T15:05:30.073Z,99231.03
2024-05-09T15:07:56.928Z,99228.75
2024-05-09T15:10:31.537Z,99230.78
2024-05-09T15:13:01.850Z,99230.91
2024-05-09T15:15:28.362Z,99232.97
2024-05-09T15:17:54.995Z,99234.06
2024-05-09T15:20:30.381Z,99224.09
2024-05-09T15:23:01.041Z,99232.63
2024-05-09T15:25:27.654Z,99220.94
2024-05-09T15:27:54.243Z,99220.00
2024-05-09T15:30:27.581Z,99220.63
2024-05-09T15:32:56.833Z,99218.63
2024-05-09T15:35:23.411Z,99213.88
2024-05-09T15:37:49.958Z,99215.06
2024-05-09T15:40:26.116Z,99208.84
2024-05-09T15:43:01.834Z,99215.63
2024-05-09T15:45:31.121Z,99217.91
2024-05-09T15:47:57.906Z,99215.41
2024-05-09T15:50:36.309Z,99210.53
2024-05-09T15:53:06.713Z,99209.22
2024-05-09T15:55:34.331Z,99203.88
2024-05-09T15:58:01.439Z,99205.56
2024-05-09T16:00:36.539Z,99202.50
2024-05-09T16:03:06.785Z,99195.31
2024-05-09T16:05:33.553Z,99198.09
2024-05-09T16:08:00.195Z,99197.28
2024-05-09T16:10:32.357Z,99194.81
2024-05-09T16:13:00.652Z,99191.69
2024-05-09T16:15:27.277Z,99185.22
2024-05-09T16:17:54.075Z,99195.16
2024-05-09T16:20:33.284Z,99193.81
2024-05-09T16:23:04.973Z,99187.66
2024-05-09T16:25:31.494Z,99193.22
2024-05-09T16:31:26.040Z,99185.47
2024-05-09T16:33:52.752Z,99191.84
2024-05-09T16:36:19.295Z,99185.47
2024-05-09T16:38:45.793Z,99179.56
2024-05-09T16:41:14.562Z,99182.22
2024-05-09T16:43:41.089Z,99178.53
2024-05-09T16:46:08.898Z,99180.63
2024-05-09T16:48:36.418Z,99177.41
2024-05-09T16:51:02.913Z,99181.66
2024-05-09T16:53:29.404Z,99180.28
2024-05-09T16:55:55.879Z,99182.94
2024-05-09T16:58:22.493Z,99178.66
2024-05-09T17:00:49.983Z,99176.00
2024-05-09T17:03:17.026Z,99177.06
2024-05-09T17:05:46.031Z,99180.78
2024-05-09T17:08:14.483Z,99181.25
2024-05-09T17:10:41.019Z,99174.31
2024-05-09T17:13:08.324Z,99170.59
2024-05-09T17:15:35.488Z,99170.03
2024-05-09T17:18:02.557Z,99166.56
2024-05-09T17:20:33.760Z,99170.25
2024-05-09T17:23:02.889Z,99167.59
2024-05-09T17:25:29.554Z,99168.63
2024-05-09T17:27:56.640Z,99177.69
2024-05-09T17:30:29.235Z,99170.50
2024-05-09T17:33:02.198Z,99173.16
2024-05-09T17:35:28.914Z,99164.72
2024-05-09T17:37:55.398Z,99169.31
2024-05-09T17:40:30.750Z,99171.72
2024-05-09T17:43:01.052Z,99173.44
2024-05-09T17:45:27.589Z,99170.56
2024-05-09T17:47:54.126Z,99164.97
2024-05-09T17:50:27.481Z,99170.31
2024-05-09T17:53:00.498Z,99164.63
2024-05-09T17:55:27.194Z,99164.06
2024-05-09T17:57:53.829Z,99166.75
2024-05-09T18:00:29.019Z,99169.06
2024-05-09T18:03:03.462Z,99170.25
2024-05-09T18:05:30.194Z,99166.44
2024-05-09T18:07:57.139Z,99170.16
2024-05-09T18:10:29.932Z,99170.75
2024-05-09T18:13:02.339Z,99166.44
2024-05-09T18:15:28.947Z,99176.53
2024-05-09T18:17:55.632Z,99166.94
2024-05-09T18:20:32.621Z,99175.75
2024-05-09T18:23:07.354Z,99172.72
2024-05-09T18:25:33.962Z,99177.50
2024-05-09T18:28:01.584Z,99171.03
2024-05-09T18:30:34.309Z,99171.75
2024-05-09T18:33:03.023Z,99181.81
2024-05-09T18:35:29.674Z,99180.69
2024-05-09T18:37:56.172Z,99173.50
2024-05-09T18:40:31.238Z,99178.25
2024-05-09T18:43:01.750Z,99181.94
2024-05-09T18:45:28.477Z,99175.81
2024-05-09T18:47:55.138Z,99184.84
2024-05-09T18:50:31.674Z,99175.47
2024-05-09T18:53:02.747Z,99183.72
2024-05-09T18:55:29.632Z,99185.56
2024-05-09T18:57:56.413Z,99176.06
2024-05-09T19:00:31.567Z,99192.50
2024-05-09T19:03:05.118Z,99187.53
2024-05-09T19:05:32.751Z,99187.78
2024-05-09T19:07:59.599Z,99192.34
2024-05-09T19:10:29.277Z,99197.31
2024-05-09T19:13:00.691Z,99195.63
2024-05-09T19:15:27.279Z,99194.22
2024-05-09T19:17:53.859Z,99208.22
2024-05-09T19:20:28.176Z,99204.84
2024-05-09T19:22:58.415Z,99201.44
2024-05-09T19:25:24.998Z,99206.88
2024-05-09T19:27:51.513Z,99209.59
2024-05-09T19:30:28.976Z,99205.16
2024-05-09T19:33:02.685Z,99213.03
2024-05-09T19:35:29.242Z,99207.44
2024-05-09T19:37:55.852Z,99216.97
2024-05-09T19:40:28.995Z,99208.28
2024-05-09T19:42:58.763Z,99211.03
2024-05-09T19:45:25.384Z,99216.56
2024-05-09T19:47:52.045Z,99218.50
2024-05-09T19:50:26.678Z,99214.75
2024-05-09T19:55:25.802Z,99217.94
2024-05-09T19:57:52.357Z,99223.28
2024-05-09T20:00:25.976Z,99221.69
2024-05-09T20:02:56.124Z,99220.56
2024-05-09T20:05:23.341Z,99228.56
2024-05-09T20:07:50.086Z,99222.97
2024-05-09T20:10:23.431Z,99223.22
2024-05-09T20:12:53.769Z,99221.69
2024-05-09T20:15:20.355Z,99219.25
2024-05-09T20:17:47.173Z,99221.34
2024-05-09T20:20:24.456Z,99222.47
2024-05-09T20:25:26.241Z,99231.53
2024-05-09T20:27:52.875Z,99232.59
2024-05-09T20:30:25.569Z,99231.28
2024-05-09T20:35:26.188Z,99233.44
2024-05-09T20:37:52.684Z,99227.88
2024-05-09T20:40:25.794Z,99229.25
2024-05-09T20:42:58.326Z,99226.28
2024-05-09T20:45:24.834Z,99229.13
2024-05-09T20:47:51.427Z,99225.97
2024-05-09T20:50:27.862Z,99226.28
2024-05-09T20:53:02.252Z,99224.97
2024-05-09T20:55:30.037Z,99222.41
2024-05-09T20:57:56.913Z,99224.53
2024-05-09T21:00:30.267Z,99228.88
2024-05-09T21:03:05.138Z,99224.53
2024-05-09T21:05:31.960Z,99226.88
2024-05-09T21:07:58.672Z,99229.56
2024-05-09T21:10:27.119Z,99220.81
2024-05-09T21:12:56.086Z,99218.13
2024-05-09T21:15:22.614Z,99222.66
2024-05-09T21:17:49.245Z,99223.09
2024-05-09T21:20:20.303Z,99216.94
2024-05-09T21:22:50.445Z,99216.94
2024-05-09T21:25:17.222Z,99219.88
2024-05-09T21:27:43.880Z,99222.88
2024-05-09T21:30:16.044Z,99226.56
2024-05-09T21:32:49.260Z,99225.75
2024-05-09T21:35:15.780Z,99220.69
2024-05-09T21:37:42.271Z,99221.53
2024-05-09T21:40:13.465Z,99226.94
2024-05-09T21:42:40.520Z,99218.56
2024-05-09T21:45:07.059Z,99218.38
2024-05-09T21:47:37.077Z,99220.19
2024-05-09T21:50:06.076Z,99220.69
2024-05-09T21:52:34.146Z,99225.53
2024-05-09T21:57:27.099Z,99222.78
2024-05-09T21:59:53.588Z,99224.97
2024-05-09T22:02:20.190Z,99219.63
2024-05-09T22:04:46.844Z,99217.44
2024-05-09T22:07:13.509Z,99223.78
2024-05-09T22:09:45.196Z,99223.28
2024-05-09T22:12:12.058Z,99212.03
2024-05-09T22:14:38.554Z,99214.69
2024-05-09T22:17:05.472Z,99211.81
2024-05-09T22:19:32.000Z,99218.44
2024-05-09T22:21:58.556Z,99219.56
2024-05-09T22:24:25.161Z,99224.69
2024-05-09T22:26:53.574Z,99221.69
2024-05-09T22:29:20.036Z,99219.56
2024-05-09T22:31:46.545Z,99221.47
2024-05-09T22:34:13.221Z,99223.28
2024-05-09T22:39:06.626Z,99224.41
2024-05-09T22:41:33.142Z,99225.38
2024-05-09T22:44:01.978Z,99229.91
2024-05-09T22:46:28.647Z,99230.44
2024-05-09T22:48:55.394Z,99225.09
2024-05-09T22:51:21.994Z,99223.38
2024-05-09T22:53:48.454Z,99227.97
2024-05-09T22:56:14.911Z,99223.38
2024-05-09T22:58:41.376Z,99221.78
2024-05-09T23:01:13.957Z,99223.63
2024-05-09T23:03:40.772Z,99227.38
2024-05-09T23:06:07.473Z,99230.59
2024-05-09T23:08:33.944Z,99227.59
2024-05-09T23:11:00.658Z,99222.25
2024-05-09T23:13:27.292Z,99224.38
2024-05-09T23:15:53.798Z,99226.25
2024-05-09T23:18:20.429Z,99234.09
2024-05-09T23:20:47.180Z,99229.72
2024-05-09T23:23:13.812Z,99221.63
2024-05-09T23:25:41.412Z,99223.16
2024-05-09T23:28:08.272Z,99212.41
2024-05-09T23:30:38.811Z,99215.25
2024-05-09T23:33:07.474Z,99207.44
2024-05-09T23:35:34.315Z,99210.91
2024-05-09T23:38:00.862Z,99207.66
2024-05-09T23:40:37.402Z,99203.88
2024-05-09T23:43:06.621Z,99208.41
2024-05-09T23:45:33.388Z,99203.31
2024-05-09T23:48:00.220Z,99201.94
2024-05-09T23:50:34.030Z,99197.66
2024-05-09T23:53:03.496Z,99194.44
2024-05-09T23:55:31.196Z,99193.84
2024-05-09T23:57:58.069Z,99201.03
